createdAt,value
2017-09-12T00:00:21.377Z,996.57
2017-09-12T00:01:31.313Z,996.6
2017-09-12T00:02:41.572Z,996.64
2017-09-12T00:03:51.827Z,996.62
2017-09-12T00:05:01.697Z,996.61
2017-09-12T00:06:11.964Z,996.68
2017-09-12T00:07:21.906Z,996.72
2017-09-12T00:08:31.845Z,996.71
2017-09-12T00:09:41.773Z,996.75
2017-09-12T00:10:52.274Z,996.75
2017-09-12T00:12:02.214Z,996.75
2017-09-12T00:13:12.158Z,996.75
2017-09-12T00:14:22.096Z,996.79
2017-09-12T00:15:32.350Z,996.8
2017-09-12T00:16:42.527Z,996.74
2017-09-12T00:17:52.771Z,996.79
2017-09-12T00:19:03.042Z,996.79
2017-09-12T00:20:12.664Z,996.79
2017-09-12T00:21:22.594Z,996.73
2017-09-12T00:22:32.836Z,996.8
2017-09-12T00:23:43.089Z,996.83
2017-09-12T00:24:53.335Z,996.8
2017-09-12T00:26:03.593Z,996.78
2017-09-12T00:27:13.839Z,996.83
2017-09-12T00:28:24.339Z,996.82
2017-09-12T00:29:34.600Z,996.83
2017-09-12T00:30:44.850Z,996.84
2017-09-12T00:31:55.101Z,996.86
2017-09-12T00:33:05.366Z,996.83
2017-09-12T00:34:15.873Z,996.82
2017-09-12T00:35:25.491Z,996.83
2017-09-12T00:36:35.427Z,996.8
2017-09-12T00:37:45.364Z,996.84
2017-09-12T00:38:55.609Z,996.8
2017-09-12T00:40:06.113Z,996.84
2017-09-12T00:41:16.046Z,996.84
2017-09-12T00:42:25.987Z,996.84
2017-09-12T00:43:36.239Z,996.89
2017-09-12T00:44:45.864Z,996.92
2017-09-12T00:45:56.055Z,996.89
2017-09-12T00:47:06.306Z,996.88
2017-09-12T00:48:16.553Z,996.87
2017-09-12T00:49:26.179Z,996.87
2017-09-12T00:50:36.447Z,996.9
2017-09-12T00:51:46.937Z,996.92
2017-09-12T00:52:57.195Z,996.9
2017-09-12T00:54:07.125Z,996.88
2017-09-12T00:55:17.384Z,996.9
2017-09-12T00:56:27.004Z,996.88
2017-09-12T00:57:37.213Z,996.85
2017-09-12T00:58:47.165Z,996.89
2017-09-12T00:59:57.416Z,996.94
2017-09-12T01:01:07.041Z,996.96
2017-09-12T01:02:17.301Z,996.84
2017-09-12T01:03:27.791Z,996.92
2017-09-12T01:04:38.044Z,996.87
2017-09-12T01:05:48.295Z,996.85
2017-09-12T01:06:57.603Z,996.81
2017-09-12T01:08:07.547Z,996.86
2017-09-12T01:09:18.061Z,996.9
2017-09-12T01:10:28.307Z,996.87
2017-09-12T01:11:38.240Z,996.92
2017-09-12T01:12:48.498Z,996.85
2017-09-12T01:13:58.758Z,996.9
2017-09-12T01:15:09.261Z,996.89
2017-09-12T01:16:19.194Z,996.87
2017-09-12T01:17:29.123Z,996.95
2017-09-12T01:18:39.366Z,996.89
2017-09-12T01:19:49.004Z,996.9
2017-09-12T01:20:59.198Z,996.89
2017-09-12T01:22:09.130Z,996.89
2017-09-12T01:23:19.382Z,996.84
2017-09-12T01:24:29.306Z,996.85
2017-09-12T01:25:39.554Z,996.83
2017-09-12T01:26:50.051Z,996.88
2017-09-12T01:27:59.983Z,996.82
2017-09-12T01:29:09.919Z,996.83
2017-09-12T01:30:20.174Z,996.82
2017-09-12T01:31:30.423Z,996.8
2017-09-12T01:32:40.923Z,996.83
2017-09-12T01:33:50.853Z,996.85
2017-09-12T01:35:01.098Z,996.83
2017-09-12T01:36:11.382Z,996.82
2017-09-12T01:37:21.638Z,996.89
2017-09-12T01:38:32.136Z,996.86
2017-09-12T01:39:42.379Z,996.88
2017-09-12T01:40:52.630Z,996.88
2017-09-12T01:42:02.247Z,996.93
2017-09-12T01:43:12.498Z,996.89
2017-09-12T01:44:23.007Z,996.92
2017-09-12T01:45:33.258Z,996.95
2017-09-12T01:46:43.197Z,996.99
2017-09-12T01:47:53.451Z,997
2017-09-12T01:49:03.388Z,996.98
2017-09-12T01:50:13.266Z,996.99
2017-09-12T01:51:23.518Z,997.01
2017-09-12T01:52:33.457Z,996.95
2017-09-12T01:53:43.402Z,996.97
2017-09-12T01:54:53.673Z,996.99
2017-09-12T01:56:03.857Z,996.92
2017-09-12T01:58:17.665Z,996.95
2017-09-12T01:59:27.593Z,996.92
2017-09-12T02:00:37.212Z,996.83
2017-09-12T02:01:47.709Z,996.79
2017-09-12T02:02:57.960Z,996.76
2017-09-12T02:04:07.907Z,996.78
2017-09-12T02:05:18.159Z,996.82
2017-09-12T02:06:28.403Z,996.8
2017-09-12T02:07:38.903Z,996.76
2017-09-12T02:08:48.840Z,996.79
2017-09-12T02:09:58.781Z,996.78
2017-09-12T02:11:09.025Z,996.75
2017-09-12T02:12:19.268Z,996.75
2017-09-12T02:13:29.459Z,996.71
2017-09-12T02:14:39.705Z,996.77
2017-09-12T02:15:49.626Z,996.76
2017-09-12T02:16:59.250Z,996.8
2017-09-12T02:18:08.888Z,996.82
2017-09-12T02:19:19.081Z,996.79
2017-09-12T02:20:29.018Z,996.8
2017-09-12T02:21:39.274Z,996.79
2017-09-12T02:22:48.888Z,996.87
2017-09-12T02:23:58.201Z,996.85
2017-09-12T02:25:08.067Z,996.86
2017-09-12T02:26:17.999Z,996.88
2017-09-12T02:27:28.247Z,996.88
2017-09-12T02:28:38.503Z,996.9
2017-09-12T02:29:48.449Z,996.88
2017-09-12T02:30:58.626Z,996.9
2017-09-12T02:32:08.911Z,996.9
2017-09-12T02:33:18.875Z,996.9
2017-09-12T02:34:29.130Z,996.9
2017-09-12T02:35:39.406Z,996.88
2017-09-12T02:36:49.595Z,996.91
2017-09-12T02:37:59.846Z,996.91
2017-09-12T02:39:10.100Z,996.96
2017-09-12T02:40:20.370Z,996.94
2017-09-12T02:41:30.623Z,996.96
2017-09-12T02:42:41.126Z,996.98
2017-09-12T02:43:51.061Z,996.99
2017-09-12T02:45:01.004Z,996.98
2017-09-12T02:46:11.265Z,996.97
2017-09-12T02:47:21.512Z,996.96
2017-09-12T02:48:32.030Z,996.95
2017-09-12T02:49:42.294Z,996.91
2017-09-12T02:50:52.551Z,996.94
2017-09-12T02:52:02.796Z,996.89
2017-09-12T02:53:12.425Z,996.89
2017-09-12T02:54:22.625Z,996.85
2017-09-12T02:55:32.881Z,996.9
2017-09-12T02:56:42.509Z,996.94
2017-09-12T02:57:52.769Z,996.86
2017-09-12T02:59:03.035Z,996.85
2017-09-12T03:00:13.225Z,996.87
2017-09-12T03:01:23.481Z,996.88
2017-09-12T03:02:33.725Z,996.74
2017-09-12T03:03:43.659Z,996.81
2017-09-12T03:04:53.904Z,996.76
2017-09-12T03:06:04.458Z,996.86
2017-09-12T03:07:14.073Z,996.85
2017-09-12T03:08:24.002Z,996.87
2017-09-12T03:09:33.623Z,996.87
2017-09-12T03:10:43.249Z,996.85
2017-09-12T03:11:53.747Z,996.92
2017-09-12T03:13:03.356Z,996.91
2017-09-12T03:14:13.615Z,996.94
2017-09-12T03:15:23.872Z,996.94
2017-09-12T03:16:33.497Z,996.93
2017-09-12T03:17:44.044Z,996.91
2017-09-12T03:18:54.293Z,996.9
2017-09-12T03:20:04.231Z,996.97
2017-09-12T03:21:14.160Z,996.98
2017-09-12T03:22:24.425Z,997
2017-09-12T03:23:34.926Z,996.99
2017-09-12T03:24:44.870Z,996.97
2017-09-12T03:25:55.123Z,996.95
2017-09-12T03:27:05.373Z,996.94
2017-09-12T03:28:15.619Z,997.02
2017-09-12T03:29:26.109Z,997.04
2017-09-12T03:30:36.040Z,996.97
2017-09-12T03:31:46.022Z,997
2017-09-12T03:32:56.268Z,996.96
2017-09-12T03:34:06.521Z,996.99
2017-09-12T03:35:17.017Z,996.94
2017-09-12T03:36:26.640Z,996.98
2017-09-12T03:37:36.895Z,997.03
2017-09-12T03:38:47.152Z,997
2017-09-12T03:39:57.419Z,997.01
2017-09-12T03:41:07.606Z,997.06
2017-09-12T03:42:17.231Z,997.08
2017-09-12T03:43:27.186Z,997.04
2017-09-12T03:44:37.442Z,996.94
2017-09-12T03:45:47.689Z,997.06
2017-09-12T03:46:58.188Z,997.05
2017-09-12T03:48:08.433Z,997.05
2017-09-12T03:49:18.710Z,997.06
2017-09-12T03:50:28.966Z,997.08
2017-09-12T03:51:39.237Z,997.12
2017-09-12T03:52:49.107Z,997.17
2017-09-12T03:53:59.363Z,997.13
2017-09-12T03:55:09.612Z,997.14
2017-09-12T03:56:19.234Z,997.18
2017-09-12T03:57:29.483Z,997.17
2017-09-12T03:58:39.979Z,997.15
2017-09-12T03:59:49.904Z,997.19
2017-09-12T04:00:59.839Z,997.19
2017-09-12T04:02:09.767Z,997.28
2017-09-12T04:03:19.696Z,997.2
2017-09-12T04:04:29.903Z,997.23
2017-09-12T04:05:40.154Z,997.23
2017-09-12T04:06:50.399Z,997.29
2017-09-12T04:08:00.638Z,997.21
2017-09-12T04:09:10.889Z,997.19
2017-09-12T04:10:21.068Z,997.16
2017-09-12T04:11:31.326Z,997.12
2017-09-12T04:12:40.944Z,997.09
2017-09-12T04:13:51.193Z,997.1
2017-09-12T04:15:01.468Z,997.14
2017-09-12T04:16:11.966Z,997.04
2017-09-12T04:17:22.220Z,997.08
2017-09-12T04:18:32.157Z,997.1
2017-09-12T04:19:42.408Z,997.09
2017-09-12T04:20:52.663Z,997.1
2017-09-12T04:22:03.168Z,997.17
2017-09-12T04:23:13.410Z,997.11
2017-09-12T04:24:23.350Z,997.16
2017-09-12T04:25:33.600Z,997.13
2017-09-12T04:26:43.224Z,997.12
2017-09-12T04:27:53.728Z,997.15
2017-09-12T04:29:03.986Z,997.09
2017-09-12T04:30:14.238Z,997.11
2017-09-12T04:31:24.168Z,997.16
2017-09-12T04:32:34.116Z,997.1
2017-09-12T04:33:44.633Z,997.08
2017-09-12T04:34:54.576Z,997.13
2017-09-12T04:36:04.824Z,997.12
2017-09-12T04:37:14.737Z,997.09
2017-09-12T04:38:24.693Z,997.16
2017-09-12T04:39:34.877Z,997.15
2017-09-12T04:40:44.828Z,997.17
2017-09-12T04:41:55.077Z,997.11
2017-09-12T04:43:05.333Z,997.11
2017-09-12T04:44:15.582Z,997.08
2017-09-12T04:45:26.134Z,997.08
2017-09-12T04:46:35.751Z,997.09
2017-09-12T04:47:46.011Z,997.08
2017-09-12T04:48:55.935Z,997.08
2017-09-12T04:50:05.859Z,997.1
2017-09-12T04:51:16.044Z,997.07
2017-09-12T04:52:25.663Z,997.07
2017-09-12T04:53:35.913Z,997.07
2017-09-12T04:54:45.865Z,997.1
2017-09-12T04:55:56.110Z,997.17
2017-09-12T04:57:05.975Z,997.09
2017-09-12T04:58:16.225Z,997.24
2017-09-12T04:59:26.156Z,997.26
2017-09-12T05:00:36.440Z,997.31
2017-09-12T05:01:46.691Z,997.27
2017-09-12T05:02:57.237Z,997.31
2017-09-12T05:04:07.511Z,997.3
2017-09-12T05:05:17.760Z,997.32
2017-09-12T05:06:27.379Z,997.27
2017-09-12T05:07:36.691Z,997.28
2017-09-12T05:08:46.570Z,997.31
2017-09-12T05:09:56.830Z,997.29
2017-09-12T05:11:07.088Z,997.33
2017-09-12T05:12:17.337Z,997.33
2017-09-12T05:13:27.598Z,997.32
2017-09-12T05:14:38.102Z,997.32
2017-09-12T05:15:48.358Z,997.29
2017-09-12T05:16:58.613Z,997.3
2017-09-12T05:18:08.864Z,997.32
2017-09-12T05:19:19.118Z,997.33
2017-09-12T05:20:29.343Z,997.33
2017-09-12T05:21:39.598Z,997.39
2017-09-12T05:22:49.538Z,997.37
2017-09-12T05:23:59.800Z,997.38
2017-09-12T05:25:10.049Z,997.45
2017-09-12T05:26:20.542Z,997.47
2017-09-12T05:27:30.477Z,997.46
2017-09-12T05:28:40.747Z,997.47
2017-09-12T05:29:51.012Z,997.43
2017-09-12T05:31:01.263Z,997.51
2017-09-12T05:32:11.163Z,997.5
2017-09-12T05:33:21.400Z,997.54
2017-09-12T05:34:31.653Z,997.57
2017-09-12T05:35:41.905Z,997.51
2017-09-12T05:36:52.162Z,997.58
2017-09-12T05:38:02.677Z,997.59
2017-09-12T05:39:12.947Z,997.61
2017-09-12T05:40:23.209Z,997.62
2017-09-12T05:41:33.458Z,997.67
2017-09-12T05:42:43.410Z,997.71
2017-09-12T05:43:53.604Z,997.72
2017-09-12T05:45:03.870Z,997.63
2017-09-12T05:46:14.120Z,997.64
2017-09-12T05:47:24.063Z,997.62
2017-09-12T05:48:33.672Z,997.63
2017-09-12T05:49:44.182Z,997.69
2017-09-12T05:50:53.808Z,997.66
2017-09-12T05:52:03.106Z,997.61
2017-09-12T05:53:13.597Z,997.64
2017-09-12T05:54:23.849Z,997.6
2017-09-12T05:55:34.355Z,997.65
2017-09-12T05:56:43.972Z,997.7
2017-09-12T05:57:53.941Z,997.6
2017-09-12T05:59:03.901Z,997.64
2017-09-12T06:00:13.835Z,997.61
2017-09-12T06:01:24.338Z,997.65
2017-09-12T06:02:34.598Z,997.67
2017-09-12T06:03:44.851Z,997.67
2017-09-12T06:04:54.796Z,997.57
2017-09-12T06:06:05.062Z,997.57
2017-09-12T06:07:15.615Z,997.62
2017-09-12T06:08:25.923Z,997.63
2017-09-12T06:09:36.216Z,997.63
2017-09-12T06:10:46.503Z,997.68
2017-09-12T06:11:56.746Z,997.68
2017-09-12T06:13:07.250Z,997.62
2017-09-12T06:14:17.210Z,997.6
2017-09-12T06:15:27.485Z,997.66
2017-09-12T06:16:37.748Z,997.57
2017-09-12T06:17:47.678Z,997.69
2017-09-12T06:18:58.187Z,997.74
2017-09-12T06:20:08.146Z,997.68
2017-09-12T06:21:17.457Z,997.7
2017-09-12T06:22:27.717Z,997.74
2017-09-12T06:23:37.970Z,997.67
2017-09-12T06:24:48.172Z,997.51
2017-09-12T06:25:58.102Z,997.62
2017-09-12T06:27:08.357Z,997.59
2017-09-12T06:28:18.816Z,997.59
2017-09-12T06:29:29.070Z,997.68
2017-09-12T06:30:39.571Z,997.65
2017-09-12T06:31:49.192Z,997.65
2017-09-12T06:32:59.117Z,997.67
2017-09-12T06:34:09.082Z,997.56
2017-09-12T06:35:19.341Z,997.69
2017-09-12T06:36:29.214Z,997.71
2017-09-12T06:37:39.475Z,997.76
2017-09-12T06:38:49.424Z,997.71
2017-09-12T06:39:59.675Z,997.81
2017-09-12T06:41:09.936Z,997.75
2017-09-12T06:42:20.448Z,997.84
2017-09-12T06:43:30.719Z,997.86
2017-09-12T06:44:40.988Z,997.91
2017-09-12T06:45:51.272Z,997.87
2017-09-12T06:47:01.580Z,997.96
2017-09-12T06:48:12.164Z,997.85
2017-09-12T06:49:22.136Z,997.85
2017-09-12T06:50:32.404Z,997.84
2017-09-12T06:51:42.354Z,997.74
2017-09-12T06:52:52.655Z,997.82
2017-09-12T06:54:03.421Z,997.75
2017-09-12T06:55:13.747Z,997.8
2017-09-12T06:56:24.011Z,997.77
2017-09-12T06:57:33.967Z,997.77
2017-09-12T06:58:44.235Z,997.83
2017-09-12T06:59:54.823Z,997.71
2017-09-12T07:01:05.100Z,997.72
2017-09-12T07:02:15.427Z,997.76
2017-09-12T07:03:25.375Z,997.72
2017-09-12T07:04:35.665Z,997.79
2017-09-12T07:05:46.191Z,997.89
2017-09-12T07:06:56.484Z,997.85
2017-09-12T07:08:06.663Z,997.81
2017-09-12T07:09:17.303Z,997.79
2017-09-12T07:10:27.252Z,997.91
2017-09-12T07:11:37.786Z,997.85
2017-09-12T07:12:48.078Z,997.86
2017-09-12T07:13:58.375Z,997.84
2017-09-12T07:15:08.670Z,997.88
2017-09-12T07:16:18.969Z,997.78
2017-09-12T07:17:29.206Z,997.87
2017-09-12T07:18:39.158Z,997.9
2017-09-12T07:19:49.696Z,997.85
2017-09-12T07:20:59.705Z,997.86
2017-09-12T07:22:09.675Z,997.8
2017-09-12T07:23:20.190Z,997.87
2017-09-12T07:24:30.483Z,997.85
2017-09-12T07:25:40.778Z,997.83
2017-09-12T07:26:50.739Z,997.88
2017-09-12T07:28:00.363Z,997.94
2017-09-12T07:29:10.557Z,997.96
2017-09-12T07:30:20.823Z,997.96
2017-09-12T07:31:30.798Z,997.97
2017-09-12T07:32:41.059Z,998.16
2017-09-12T07:33:51.323Z,998.06
2017-09-12T07:35:01.830Z,998.17
2017-09-12T07:36:11.768Z,998.17
2017-09-12T07:37:22.034Z,998.08
2017-09-12T07:38:31.991Z,998.09
2017-09-12T07:39:42.244Z,998.14
2017-09-12T07:40:52.757Z,998.15
2017-09-12T07:42:03.030Z,998.08
2017-09-12T07:43:13.303Z,998.08
2017-09-12T07:44:23.581Z,998.15
2017-09-12T07:45:33.537Z,998.07
2017-09-12T07:46:44.051Z,998.22
2017-09-12T07:47:54.322Z,998.12
2017-09-12T07:49:04.582Z,998.24
2017-09-12T07:50:14.844Z,998.2
2017-09-12T07:51:24.786Z,998.17
2017-09-12T07:52:35.292Z,998.26
2017-09-12T07:53:45.550Z,998.12
2017-09-12T07:54:55.850Z,998.23
2017-09-12T07:56:05.801Z,998.22
2017-09-12T07:57:16.091Z,998.29
2017-09-12T07:58:26.614Z,998.26
2017-09-12T07:59:36.573Z,998.25
2017-09-12T08:00:46.508Z,998.26
2017-09-12T08:01:56.770Z,998.22
2017-09-12T08:03:07.044Z,998.26
2017-09-12T08:04:16.949Z,998.35
2017-09-12T08:05:27.237Z,998.29
2017-09-12T08:06:37.505Z,998.33
2017-09-12T08:07:47.781Z,998.38
2017-09-12T08:08:58.041Z,998.51
2017-09-12T08:10:08.246Z,998.3
2017-09-12T08:11:18.218Z,998.34
2017-09-12T08:12:28.497Z,998.35
2017-09-12T08:13:38.442Z,998.32
2017-09-12T08:14:48.726Z,998.33
2017-09-12T08:15:59.233Z,998.35
2017-09-12T08:17:09.496Z,998.35
2017-09-12T08:18:19.493Z,998.44
2017-09-12T08:19:29.774Z,998.41
2017-09-12T08:20:39.768Z,998.42
2017-09-12T08:21:49.999Z,998.39
2017-09-12T08:22:59.948Z,998.31
2017-09-12T08:24:10.204Z,998.35
2017-09-12T08:25:20.484Z,998.46
2017-09-12T08:26:30.423Z,998.32
2017-09-12T08:27:40.929Z,998.31
2017-09-12T08:28:50.907Z,998.24
2017-09-12T08:30:01.177Z,998.32
2017-09-12T08:31:11.156Z,998.4
2017-09-12T08:32:21.425Z,998.36
2017-09-12T08:33:31.987Z,998.36
2017-09-12T08:34:42.268Z,998.39
2017-09-12T08:35:52.216Z,998.38
2017-09-12T08:37:02.470Z,998.41
2017-09-12T08:38:12.731Z,998.4
2017-09-12T08:39:22.925Z,998.45
2017-09-12T08:40:32.891Z,998.4
2017-09-12T08:41:43.146Z,998.38
2017-09-12T08:42:53.426Z,998.43
2017-09-12T08:44:03.365Z,998.36
2017-09-12T08:45:13.887Z,998.36
2017-09-12T08:46:24.172Z,998.28
2017-09-12T08:47:34.438Z,998.19
2017-09-12T08:48:44.701Z,998.27
2017-09-12T08:49:54.968Z,998.29
2017-09-12T08:51:05.497Z,998.35
2017-09-12T08:52:15.410Z,998.3
2017-09-12T08:53:25.362Z,998.28
2017-09-12T08:54:35.309Z,998.28
2017-09-12T08:55:45.559Z,998.48
2017-09-12T08:56:56.156Z,998.39
2017-09-12T08:58:06.431Z,998.34
2017-09-12T08:59:16.383Z,998.45
2017-09-12T09:00:26.331Z,998.42
2017-09-12T09:01:36.270Z,998.51
2017-09-12T09:02:46.488Z,998.39
2017-09-12T09:03:56.438Z,998.45
2017-09-12T09:05:05.695Z,998.48
2017-09-12T09:06:15.948Z,998.57
2017-09-12T09:07:25.886Z,998.6
2017-09-12T09:08:36.111Z,998.48
2017-09-12T09:09:46.404Z,998.57
2017-09-12T09:10:56.675Z,998.54
2017-09-12T09:12:06.638Z,998.68
2017-09-12T09:13:16.889Z,998.65
2017-09-12T09:14:27.086Z,998.44
2017-09-12T09:15:37.057Z,998.77
2017-09-12T09:16:47.320Z,998.6
2017-09-12T09:17:57.571Z,998.63
2017-09-12T09:19:07.838Z,998.64
2017-09-12T09:20:18.357Z,998.64
2017-09-12T09:21:28.626Z,998.58
2017-09-12T09:22:38.576Z,998.68
2017-09-12T09:23:48.830Z,998.77
2017-09-12T09:24:58.777Z,998.73
2017-09-12T09:26:09.289Z,998.66
2017-09-12T09:27:19.581Z,998.74
2017-09-12T09:28:29.285Z,998.68
2017-09-12T09:29:39.909Z,998.81
2017-09-12T09:30:49.854Z,998.72
2017-09-12T09:32:00.367Z,998.81
2017-09-12T09:33:10.629Z,998.93
2017-09-12T09:34:20.627Z,998.72
2017-09-12T09:35:30.947Z,998.77
2017-09-12T09:36:41.227Z,998.73
2017-09-12T09:37:51.457Z,998.79
2017-09-12T09:39:01.443Z,998.76
2017-09-12T09:40:11.718Z,998.59
2017-09-12T09:41:21.973Z,998.81
2017-09-12T09:42:32.239Z,998.86
2017-09-12T09:43:42.769Z,998.79
2017-09-12T09:44:53.295Z,998.82
2017-09-12T09:46:03.265Z,998.82
2017-09-12T09:47:13.562Z,998.81
2017-09-12T09:48:23.862Z,998.77
2017-09-12T09:49:34.376Z,998.9
2017-09-12T09:50:44.675Z,998.87
2017-09-12T09:51:54.975Z,998.91
2017-09-12T09:53:05.256Z,998.98
2017-09-12T09:54:15.539Z,998.76
2017-09-12T09:55:26.080Z,998.85
2017-09-12T09:56:36.039Z,998.81
2017-09-12T09:57:46.303Z,998.84
2017-09-12T09:58:55.626Z,998.84
2017-09-12T10:00:05.896Z,998.88
2017-09-12T10:01:16.412Z,999
2017-09-12T10:02:26.360Z,998.9
2017-09-12T10:03:36.326Z,998.87
2017-09-12T10:04:46.586Z,999.02
2017-09-12T10:05:56.871Z,998.96
2017-09-12T10:07:07.396Z,999.12
2017-09-12T10:08:17.657Z,998.96
2017-09-12T10:09:27.606Z,999.02
2017-09-12T10:10:37.884Z,999.17
2017-09-12T10:11:48.182Z,999.16
2017-09-12T10:12:58.726Z,999.03
2017-09-12T10:14:09.000Z,999.11
2017-09-12T10:15:18.951Z,999.11
2017-09-12T10:16:29.218Z,999.08
2017-09-12T10:17:39.169Z,999.04
2017-09-12T10:18:49.932Z,999.04
2017-09-12T10:19:59.666Z,999.24
2017-09-12T10:21:09.959Z,999.13
2017-09-12T10:22:19.602Z,999.07
2017-09-12T10:23:29.874Z,999.02
2017-09-12T10:24:40.390Z,999.02
2017-09-12T10:25:50.648Z,999.1
2017-09-12T10:27:00.931Z,999.07
2017-09-12T10:28:10.570Z,999.1
2017-09-12T10:29:20.608Z,999.05
2017-09-12T10:30:31.126Z,999.15
2017-09-12T10:31:41.419Z,999.02
2017-09-12T10:32:51.423Z,999
2017-09-12T10:34:01.722Z,999
2017-09-12T10:35:12.032Z,999.03
2017-09-12T10:36:22.298Z,999.02
2017-09-12T10:37:32.829Z,999.02
2017-09-12T10:38:42.784Z,998.95
2017-09-12T10:39:53.065Z,999.07
2017-09-12T10:41:03.017Z,999.11
2017-09-12T10:42:13.223Z,999.12
2017-09-12T10:43:23.514Z,999.18
2017-09-12T10:44:33.478Z,999.18
2017-09-12T10:45:43.115Z,999.01
2017-09-12T10:46:53.071Z,999.11
2017-09-12T10:48:03.658Z,999.1
2017-09-12T10:49:13.941Z,999.07
2017-09-12T10:50:24.283Z,999.15
2017-09-12T10:51:34.548Z,999.04
2017-09-12T10:52:44.848Z,999.27
2017-09-12T10:53:55.415Z,999.2
2017-09-12T10:55:05.368Z,999.11
2017-09-12T10:56:15.704Z,999.25
2017-09-12T10:57:25.664Z,999.22
2017-09-12T10:58:35.922Z,999.21
2017-09-12T10:59:46.431Z,999.19
2017-09-12T11:00:56.727Z,999.21
2017-09-12T11:02:06.993Z,999.19
2017-09-12T11:03:17.251Z,999.22
2017-09-12T11:04:27.543Z,999.17
2017-09-12T11:05:38.074Z,999.21
2017-09-12T11:06:48.392Z,999.25
2017-09-12T11:07:58.664Z,999.24
2017-09-12T11:09:08.944Z,999.28
2017-09-12T11:10:19.218Z,999.25
2017-09-12T11:11:29.742Z,999.16
2017-09-12T11:12:40.085Z,999.22
2017-09-12T11:13:50.406Z,999.22
2017-09-12T11:15:00.444Z,999.25
2017-09-12T11:16:10.397Z,999.19
2017-09-12T11:17:20.576Z,999.33
2017-09-12T11:18:30.876Z,999.3
2017-09-12T11:19:40.853Z,999.28
2017-09-12T11:20:51.154Z,999.16
2017-09-12T11:22:00.821Z,999.2
2017-09-12T11:23:11.333Z,999.26
2017-09-12T11:24:21.601Z,999.35
2017-09-12T11:25:31.878Z,999.19
2017-09-12T11:26:42.157Z,999.34
2017-09-12T11:27:51.793Z,999.29
2017-09-12T11:29:01.978Z,999.26
2017-09-12T11:30:11.606Z,999.22
2017-09-12T11:31:21.883Z,999.3
2017-09-12T11:32:31.881Z,999.32
2017-09-12T11:33:42.153Z,999.42
2017-09-12T11:34:52.678Z,999.51
2017-09-12T11:36:02.626Z,999.27
2017-09-12T11:37:12.901Z,999.35
2017-09-12T11:38:22.861Z,999.25
2017-09-12T11:39:33.132Z,999.3
2017-09-12T11:40:43.715Z,999.3
2017-09-12T11:41:54.026Z,999.29
2017-09-12T11:43:04.292Z,999.29
2017-09-12T11:44:14.552Z,999.3
2017-09-12T11:45:24.829Z,999.35
2017-09-12T11:46:35.028Z,999.47
2017-09-12T11:47:44.973Z,999.44
2017-09-12T11:48:54.935Z,999.24
2017-09-12T11:50:05.265Z,999.53
2017-09-12T11:51:15.537Z,999.36
2017-09-12T11:52:25.749Z,999.34
2017-09-12T11:53:36.044Z,999.33
2017-09-12T11:54:46.335Z,999.4
2017-09-12T11:55:56.278Z,999.37
2017-09-12T11:57:06.566Z,999.37
2017-09-12T11:58:17.110Z,999.33
2017-09-12T11:59:26.743Z,999.35
2017-09-12T12:00:36.704Z,999.3
2017-09-12T12:01:46.636Z,999.33
2017-09-12T12:02:56.905Z,999.32
2017-09-12T12:04:07.414Z,999.26
2017-09-12T12:05:17.685Z,999.29
2017-09-12T12:06:27.671Z,999.24
2017-09-12T12:07:37.947Z,999.23
2017-09-12T12:08:48.427Z,999.2
2017-09-12T12:09:58.994Z,999.16
2017-09-12T12:11:09.240Z,999.16
2017-09-12T12:12:19.204Z,999.32
2017-09-12T12:13:29.477Z,999.28
2017-09-12T12:14:39.772Z,999.3
2017-09-12T12:15:49.662Z,999.3
2017-09-12T12:16:59.966Z,999.36
2017-09-12T12:18:10.228Z,999.35
2017-09-12T12:19:20.527Z,999.35
2017-09-12T12:20:30.804Z,999.4
2017-09-12T12:21:41.144Z,999.31
2017-09-12T12:22:50.816Z,999.55
2017-09-12T12:24:01.100Z,999.39
2017-09-12T12:25:11.374Z,999.42
2017-09-12T12:26:21.661Z,999.3
2017-09-12T12:27:32.324Z,999.39
2017-09-12T12:28:42.662Z,999.38
2017-09-12T12:29:52.956Z,999.51
2017-09-12T12:31:03.240Z,999.49
2017-09-12T12:32:13.515Z,999.43
2017-09-12T12:33:24.173Z,999.54
2017-09-12T12:34:34.051Z,999.33
2017-09-12T12:35:44.330Z,999.55
2017-09-12T12:36:54.645Z,999.4
2017-09-12T12:38:04.907Z,999.41
2017-09-12T12:39:15.579Z,999.42
2017-09-12T12:40:25.840Z,999.43
2017-09-12T12:41:36.098Z,999.42
2017-09-12T12:42:46.366Z,999.47
2017-09-12T12:43:56.646Z,999.37
2017-09-12T12:45:07.274Z,999.33
2017-09-12T12:46:17.571Z,999.36
2017-09-12T12:47:27.852Z,999.41
2017-09-12T12:48:37.796Z,999.34
2017-09-12T12:49:48.065Z,999.37
2017-09-12T12:50:58.650Z,999.52
2017-09-12T12:52:08.930Z,999.4
2017-09-12T12:53:19.172Z,999.47
2017-09-12T12:54:29.447Z,999.45
2017-09-12T12:55:39.721Z,999.5
2017-09-12T12:56:50.337Z,999.54
2017-09-12T12:58:00.284Z,999.47
2017-09-12T12:59:10.228Z,999.62
2017-09-12T13:00:20.399Z,999.6
2017-09-12T13:01:30.337Z,999.59
2017-09-12T13:02:40.596Z,999.64
2017-09-12T13:03:50.854Z,999.53
2017-09-12T13:05:01.121Z,999.64
2017-09-12T13:06:11.394Z,999.71
2017-09-12T13:07:21.651Z,999.78
2017-09-12T13:08:31.994Z,999.61
2017-09-12T13:09:42.255Z,999.65
2017-09-12T13:10:52.196Z,999.76
2017-09-12T13:12:02.450Z,999.75
2017-09-12T13:13:12.072Z,999.7
2017-09-12T13:14:22.400Z,999.82
2017-09-12T13:15:32.351Z,999.78
2017-09-12T13:16:42.287Z,999.81
2017-09-12T13:17:52.546Z,999.89
2017-09-12T13:19:02.492Z,1000.02
2017-09-12T13:20:12.439Z,999.96
2017-09-12T13:21:22.088Z,1000.06
2017-09-12T13:22:32.430Z,1000.02
2017-09-12T13:23:42.392Z,1000.13
2017-09-12T13:24:52.333Z,1000.15
2017-09-12T13:26:02.620Z,1000.08
2017-09-12T13:27:12.589Z,1000.13
2017-09-12T13:28:22.556Z,1000.14
2017-09-12T13:29:32.831Z,1000.12
2017-09-12T13:30:42.796Z,1000.07
2017-09-12T13:31:53.407Z,1000.05
2017-09-12T13:33:03.346Z,1000.1
2017-09-12T13:34:13.617Z,1000.17
2017-09-12T13:35:23.889Z,1000.19
2017-09-12T13:36:34.151Z,1000.2
2017-09-12T13:37:43.500Z,1000.28
2017-09-12T13:38:53.143Z,1000.29
2017-09-12T13:40:03.091Z,1000.26
2017-09-12T13:41:13.064Z,1000.34
2017-09-12T13:42:23.348Z,1000.33
2017-09-12T13:43:33.662Z,1000.35
2017-09-12T13:44:43.616Z,1000.19
2017-09-12T13:45:53.583Z,1000.23
2017-09-12T13:47:03.856Z,1000.19
2017-09-12T13:48:14.145Z,1000.23
2017-09-12T13:49:24.766Z,1000.21
2017-09-12T13:50:34.709Z,1000.15
2017-09-12T13:51:44.993Z,1000.18
2017-09-12T13:52:54.622Z,1000.18
2017-09-12T13:54:04.569Z,1000.12
2017-09-12T13:55:15.182Z,1000.19
2017-09-12T13:56:25.437Z,1000.2
2017-09-12T13:57:35.386Z,1000.23
2017-09-12T13:58:45.651Z,1000.22
2017-09-12T13:59:55.639Z,1000.21
2017-09-12T14:01:06.196Z,1000.28
2017-09-12T14:02:16.442Z,1000.33
2017-09-12T14:03:26.726Z,1000.38
2017-09-12T14:04:36.988Z,1000.31
2017-09-12T14:05:47.243Z,1000.35
2017-09-12T14:06:57.183Z,1000.3
2017-09-12T14:08:07.133Z,1000.31
2017-09-12T14:09:17.081Z,1000.31
2017-09-12T14:10:27.025Z,1000.29
2017-09-12T14:11:36.664Z,1000.29
2017-09-12T14:12:46.952Z,1000.25
2017-09-12T14:13:56.897Z,1000.2
2017-09-12T14:15:06.524Z,1000.19
2017-09-12T14:16:16.783Z,1000.13
2017-09-12T14:17:27.072Z,1000.19
2017-09-12T14:18:37.377Z,1000.23
2017-09-12T14:19:47.644Z,1000.09
2017-09-12T14:20:57.898Z,1000.18
2017-09-12T14:22:08.163Z,1000.25
2017-09-12T14:23:17.768Z,1000.23
2017-09-12T14:24:28.346Z,1000.25
2017-09-12T14:25:38.288Z,1000.29
2017-09-12T14:26:48.546Z,1000.24
2017-09-12T14:27:58.797Z,1000.29
2017-09-12T14:29:09.065Z,1000.25
2017-09-12T14:30:19.309Z,1000.25
2017-09-12T14:31:28.937Z,1000.21
2017-09-12T14:32:39.229Z,1000.24
2017-09-12T14:33:49.518Z,1000.25
2017-09-12T14:34:59.774Z,1000.33
2017-09-12T14:36:10.008Z,1000.25
2017-09-12T14:37:19.626Z,1000.29